createdAt,value
2019-03-15T00:00:29.221Z,5.40
2019-03-15T00:02:59.173Z,5.30
2019-03-15T00:10:27.435Z,5.40
2019-03-15T00:12:57.360Z,5.40
2019-03-15T00:17:56.426Z,5.20
2019-03-15T00:20:26.829Z,5.40
2019-03-15T00:22:56.994Z,5.40
2019-03-15T00:25:26.977Z,5.30
2019-03-15T00:27:56.808Z,5.30
2019-03-15T00:30:26.746Z,5.40
2019-03-15T00:32:56.661Z,5.40
2019-03-15T00:35:26.514Z,5.40
2019-03-15T00:37:56.637Z,5.40
2019-03-15T00:42:55.875Z,5.40
2019-03-15T00:47:54.996Z,5.40
2019-03-15T00:50:24.973Z,5.30
2019-03-15T00:52:54.811Z,5.20
2019-03-15T00:57:53.943Z,5.10
2019-03-15T01:00:24.161Z,5.00
2019-03-15T01:02:54.418Z,5.00
2019-03-15T01:12:52.780Z,4.90
2019-03-15T01:15:22.638Z,4.90
2019-03-15T01:17:52.675Z,4.90
2019-03-15T01:20:22.579Z,4.90
2019-03-15T01:25:21.645Z,4.90
2019-03-15T01:27:51.542Z,4.90
2019-03-15T01:30:21.461Z,4.80
2019-03-15T01:32:51.394Z,4.80
2019-03-15T01:37:50.778Z,4.70
2019-03-15T01:40:20.706Z,4.70
2019-03-15T01:45:19.714Z,4.50
2019-03-15T01:47:50.493Z,4.60
2019-03-15T01:52:49.699Z,4.50
2019-03-15T01:55:19.641Z,4.50
2019-03-15T01:57:49.535Z,4.50
2019-03-15T02:00:19.466Z,4.50
2019-03-15T02:10:16.926Z,4.40
2019-03-15T02:12:47.483Z,4.40
2019-03-15T02:15:18.493Z,4.40
2019-03-15T02:17:52.622Z,4.40
2019-03-15T02:20:23.348Z,4.40
2019-03-15T02:22:53.262Z,4.40
2019-03-15T02:25:23.845Z,4.40
2019-03-15T02:27:53.702Z,4.40
2019-03-15T02:30:23.564Z,4.40
2019-03-15T02:32:53.524Z,4.40
2019-03-15T02:37:52.965Z,4.40
2019-03-15T02:40:23.221Z,4.30
2019-03-15T02:42:53.248Z,4.40
2019-03-15T02:45:23.434Z,4.30
2019-03-15T02:47:53.364Z,4.50
2019-03-15T02:52:52.862Z,4.40
2019-03-15T02:55:22.784Z,4.60
2019-03-15T02:57:52.700Z,4.40
2019-03-15T03:00:22.945Z,4.40
2019-03-15T03:02:53.975Z,4.30
2019-03-15T03:07:53.562Z,4.50
2019-03-15T03:10:23.504Z,4.50
2019-03-15T03:12:53.622Z,4.50
2019-03-15T03:15:25.070Z,4.50
2019-03-15T03:17:55.168Z,4.50
2019-03-15T03:20:25.104Z,4.50
2019-03-15T03:22:55.054Z,4.60
2019-03-15T03:25:25.010Z,4.50
2019-03-15T03:27:55.010Z,4.50
2019-03-15T03:30:24.882Z,4.50
2019-03-15T03:32:54.819Z,4.50
2019-03-15T03:37:54.265Z,4.40
2019-03-15T03:40:24.123Z,4.40
2019-03-15T03:42:54.319Z,4.50
2019-03-15T03:47:53.462Z,4.50
2019-03-15T03:55:22.198Z,4.50
2019-03-15T03:57:52.137Z,4.50
2019-03-15T04:02:53.258Z,4.60
2019-03-15T04:05:23.455Z,4.50
2019-03-15T04:07:53.395Z,4.60
2019-03-15T04:10:23.370Z,4.70
2019-03-15T04:12:53.328Z,4.60
2019-03-15T04:15:23.254Z,4.70
2019-03-15T04:20:22.341Z,4.70
2019-03-15T04:22:55.260Z,4.70
2019-03-15T04:25:23.989Z,4.70
2019-03-15T04:27:53.950Z,4.70
2019-03-15T04:30:23.890Z,4.70
2019-03-15T04:32:53.820Z,4.60
2019-03-15T04:35:23.748Z,4.80
2019-03-15T04:37:54.031Z,4.90
2019-03-15T04:40:23.956Z,4.90
2019-03-15T04:45:23.038Z,4.80
2019-03-15T04:47:52.998Z,4.80
2019-03-15T04:50:22.865Z,4.80
2019-03-15T04:52:52.786Z,4.90
2019-03-15T04:57:51.788Z,4.90
2019-03-15T05:00:21.687Z,5.00
2019-03-15T05:02:51.637Z,5.00
2019-03-15T05:05:21.468Z,5.00
2019-03-15T05:10:20.528Z,5.00
2019-03-15T05:12:50.542Z,5.20
2019-03-15T05:15:20.454Z,5.00
2019-03-15T05:17:50.862Z,5.00
2019-03-15T05:20:21.319Z,5.00
2019-03-15T05:22:51.429Z,5.00
2019-03-15T05:30:20.340Z,5.00
2019-03-15T05:32:50.646Z,5.10
2019-03-15T05:37:49.731Z,5.10
2019-03-15T05:40:19.628Z,5.10
2019-03-15T05:42:49.566Z,5.10
2019-03-15T05:45:19.821Z,5.10
2019-03-15T05:50:18.993Z,5.00
2019-03-15T05:57:48.045Z,4.90
2019-03-15T06:00:18.021Z,5.00
2019-03-15T06:02:48.270Z,4.90
2019-03-15T06:07:47.476Z,4.80
2019-03-15T06:12:46.682Z,4.70
2019-03-15T06:15:16.642Z,4.80
2019-03-15T06:17:49.800Z,4.80
2019-03-15T06:20:19.758Z,4.80
2019-03-15T06:22:49.729Z,4.90
2019-03-15T06:25:19.669Z,5.00
2019-03-15T06:27:49.616Z,5.00
2019-03-15T06:30:19.557Z,4.90
2019-03-15T06:32:49.971Z,5.10
2019-03-15T06:37:49.602Z,5.20
2019-03-15T06:42:48.660Z,5.30
2019-03-15T06:45:19.001Z,5.10
2019-03-15T06:47:49.221Z,5.20
2019-03-15T06:50:19.532Z,5.20
2019-03-15T06:52:49.493Z,5.10
2019-03-15T06:55:19.786Z,5.20
2019-03-15T06:57:49.693Z,5.30
2019-03-15T07:00:19.595Z,5.20
2019-03-15T07:02:49.518Z,5.20
2019-03-15T07:05:20.648Z,5.40
2019-03-15T07:07:50.833Z,5.40
2019-03-15T07:15:19.581Z,5.40
2019-03-15T07:25:17.281Z,5.60
2019-03-15T07:27:47.186Z,5.70
2019-03-15T07:30:17.610Z,5.70
2019-03-15T07:32:47.483Z,5.70
2019-03-15T07:35:17.420Z,5.80
2019-03-15T07:37:47.771Z,5.80
2019-03-15T07:40:18.387Z,5.80
2019-03-15T07:42:48.445Z,5.80
2019-03-15T07:45:18.379Z,5.60
2019-03-15T07:52:46.793Z,5.70
2019-03-15T07:55:16.698Z,5.70
2019-03-15T08:00:17.148Z,5.70
2019-03-15T08:02:47.079Z,5.70
2019-03-15T08:05:17.002Z,5.70
2019-03-15T08:07:46.947Z,5.60
2019-03-15T08:10:16.973Z,5.60
2019-03-15T08:12:49.499Z,5.50
2019-03-15T08:15:18.477Z,5.50
2019-03-15T08:17:48.779Z,5.50
2019-03-15T08:22:48.036Z,5.20
2019-03-15T08:30:16.468Z,5.00
2019-03-15T08:32:46.472Z,5.00
2019-03-15T08:35:16.617Z,4.90
2019-03-15T08:37:46.548Z,4.90
2019-03-15T08:40:16.489Z,4.90
2019-03-15T08:42:46.417Z,4.80
2019-03-15T08:45:16.354Z,4.80
2019-03-15T08:47:46.294Z,4.90
2019-03-15T08:50:16.452Z,4.80
2019-03-15T08:52:46.421Z,4.80
2019-03-15T08:55:17.409Z,4.80
2019-03-15T08:57:47.582Z,4.80
2019-03-15T09:00:17.617Z,4.70
2019-03-15T09:02:48.169Z,4.50
2019-03-15T09:05:18.167Z,4.90
2019-03-15T09:07:48.358Z,4.60
2019-03-15T09:10:23.263Z,4.70
2019-03-15T09:12:50.203Z,4.60
2019-03-15T09:15:20.117Z,4.40
2019-03-15T09:22:48.518Z,4.60
2019-03-15T09:25:20.113Z,4.90
2019-03-15T09:27:50.311Z,4.50
2019-03-15T09:30:24.387Z,4.50
2019-03-15T09:32:51.892Z,4.50
2019-03-15T09:35:21.830Z,4.60
2019-03-15T09:37:51.758Z,4.40
2019-03-15T09:40:25.312Z,4.40
2019-03-15T09:42:53.302Z,4.40
2019-03-15T09:45:23.609Z,4.40
2019-03-15T09:50:33.839Z,4.30
2019-03-15T09:52:54.375Z,4.30
2019-03-15T09:55:32.810Z,4.40
2019-03-15T09:57:55.879Z,4.30
2019-03-15T10:00:26.101Z,4.30
2019-03-15T10:02:56.382Z,4.30
2019-03-15T10:05:26.319Z,4.30
2019-03-15T10:13:04.935Z,4.40
2019-03-15T10:17:56.645Z,4.60
2019-03-15T10:20:26.802Z,4.60
2019-03-15T10:25:27.554Z,4.60
2019-03-15T10:27:57.804Z,4.60
2019-03-15T10:30:29.166Z,4.70
2019-03-15T10:32:59.144Z,4.70
2019-03-15T10:35:29.515Z,4.80
2019-03-15T10:37:59.438Z,4.90
2019-03-15T10:42:58.671Z,4.80
2019-03-15T10:45:28.586Z,4.90
2019-03-15T10:47:58.529Z,5.00
2019-03-15T10:50:28.723Z,5.00
2019-03-15T10:52:58.674Z,5.00
2019-03-15T10:57:58.094Z,5.30
2019-03-15T11:00:28.355Z,5.30
2019-03-15T11:02:58.281Z,5.40
2019-03-15T11:05:28.234Z,5.50
2019-03-15T11:07:58.177Z,5.50
2019-03-15T11:12:57.593Z,5.60
2019-03-15T11:15:27.485Z,5.70
2019-03-15T11:20:26.502Z,5.80
2019-03-15T11:22:56.445Z,5.60
2019-03-15T11:25:26.390Z,5.80
2019-03-15T11:27:56.641Z,5.90
2019-03-15T11:30:26.809Z,5.90
2019-03-15T11:35:25.932Z,5.90
2019-03-15T11:37:55.857Z,6.00
2019-03-15T11:40:25.763Z,6.10
2019-03-15T11:42:55.680Z,6.20
2019-03-15T11:45:25.942Z,6.20
2019-03-15T11:48:03.478Z,6.20
2019-03-15T11:50:27.375Z,6.30
2019-03-15T11:52:57.281Z,6.40
2019-03-15T11:55:27.186Z,6.50
2019-03-15T11:57:57.078Z,6.50
2019-03-15T12:00:27.037Z,6.60
2019-03-15T12:02:56.973Z,6.60
2019-03-15T12:05:26.811Z,6.70
2019-03-15T12:12:55.505Z,6.90
2019-03-15T12:15:25.375Z,6.90
2019-03-15T12:17:55.410Z,7.00
2019-03-15T12:20:25.317Z,7.20
2019-03-15T12:22:55.273Z,7.10
2019-03-15T12:27:54.966Z,7.30
2019-03-15T12:30:24.897Z,7.50
2019-03-15T12:32:54.844Z,7.50
2019-03-15T12:35:24.774Z,7.60
2019-03-15T12:37:54.965Z,7.70
2019-03-15T12:40:24.947Z,7.80
2019-03-15T12:42:54.892Z,7.80
2019-03-15T12:47:54.185Z,8.00
2019-03-15T12:55:22.477Z,8.10
2019-03-15T12:57:52.397Z,8.10
2019-03-15T13:00:22.370Z,8.10
2019-03-15T13:02:52.327Z,8.10
2019-03-15T13:05:22.253Z,8.10
2019-03-15T13:07:52.113Z,8.20
2019-03-15T13:10:22.253Z,8.20
2019-03-15T13:12:52.181Z,8.20
2019-03-15T13:15:22.137Z,8.20
2019-03-15T13:17:52.012Z,8.20
2019-03-15T13:20:22.208Z,8.20
2019-03-15T13:22:52.042Z,8.30
2019-03-15T13:25:22.356Z,8.30
2019-03-15T13:27:54.177Z,8.30
2019-03-15T13:30:24.154Z,8.30
2019-03-15T13:32:54.093Z,8.40
2019-03-15T13:35:24.053Z,8.40
2019-03-15T13:37:53.975Z,8.40
2019-03-15T13:40:23.937Z,8.40
2019-03-15T13:42:53.833Z,8.40
2019-03-15T13:45:23.714Z,8.40
2019-03-15T13:47:53.657Z,8.50
2019-03-15T13:50:23.581Z,8.50
2019-03-15T13:52:53.510Z,8.50
2019-03-15T13:55:23.466Z,8.50
2019-03-15T13:57:53.442Z,8.50
2019-03-15T14:00:23.434Z,8.50
2019-03-15T14:02:53.392Z,8.50
2019-03-15T14:05:23.313Z,8.50
2019-03-15T14:07:53.224Z,8.50
2019-03-15T14:10:23.162Z,8.60
2019-03-15T14:12:53.101Z,8.60
2019-03-15T14:15:22.979Z,8.60
2019-03-15T14:17:52.902Z,8.60
2019-03-15T14:20:22.836Z,8.60
2019-03-15T14:22:52.734Z,8.60
2019-03-15T14:25:22.652Z,8.60
2019-03-15T14:27:52.909Z,8.60
2019-03-15T14:30:22.868Z,8.60
2019-03-15T14:32:52.834Z,8.60
2019-03-15T14:35:22.757Z,8.60
2019-03-15T14:37:52.700Z,8.60
2019-03-15T14:40:22.651Z,8.60
2019-03-15T14:42:52.893Z,8.60
2019-03-15T14:45:22.833Z,8.70
2019-03-15T14:47:52.748Z,8.80
2019-03-15T14:50:22.701Z,8.70
2019-03-15T14:52:52.615Z,8.70
2019-03-15T14:55:22.558Z,8.70
2019-03-15T14:57:53.567Z,8.70
2019-03-15T15:00:23.821Z,8.70
2019-03-15T15:02:53.749Z,8.80
2019-03-15T15:05:23.696Z,8.80
2019-03-15T15:07:53.577Z,8.80
2019-03-15T15:10:23.527Z,8.80
2019-03-15T15:12:53.439Z,8.70
2019-03-15T15:15:23.691Z,8.70
2019-03-15T15:17:53.610Z,8.80
2019-03-15T15:20:23.575Z,8.80
2019-03-15T15:22:53.393Z,8.70
2019-03-15T15:25:23.357Z,8.70
2019-03-15T15:28:03.785Z,8.80
2019-03-15T15:30:24.821Z,8.80
2019-03-15T15:32:54.764Z,8.80
2019-03-15T15:35:25.085Z,8.80
2019-03-15T15:37:55.065Z,8.80
2019-03-15T15:40:24.958Z,8.90
2019-03-15T15:42:54.898Z,8.90
2019-03-15T15:45:24.844Z,8.90
2019-03-15T15:47:54.747Z,8.90
2019-03-15T15:50:24.697Z,8.90
2019-03-15T15:52:54.620Z,8.80
2019-03-15T15:55:24.514Z,8.90
2019-03-15T15:57:54.429Z,8.90
2019-03-15T16:00:24.337Z,8.90
2019-03-15T16:02:54.245Z,8.90
2019-03-15T16:05:24.241Z,8.90
2019-03-15T16:07:56.448Z,8.90
2019-03-15T16:10:25.729Z,9.00
2019-03-15T16:12:55.913Z,8.90
2019-03-15T16:15:25.943Z,8.90
2019-03-15T16:17:55.886Z,8.90
2019-03-15T16:20:25.813Z,8.90
2019-03-15T16:22:56.067Z,8.90
2019-03-15T16:25:26.029Z,8.90
2019-03-15T16:27:55.871Z,8.90
2019-03-15T16:30:25.830Z,8.90
2019-03-15T16:32:56.008Z,8.90
2019-03-15T16:35:25.981Z,8.90
2019-03-15T16:37:55.981Z,8.90
2019-03-15T16:40:25.843Z,8.90
2019-03-15T16:42:55.793Z,8.90
2019-03-15T16:45:25.929Z,8.90
2019-03-15T16:47:55.782Z,8.80
2019-03-15T16:50:25.985Z,8.80
2019-03-15T16:52:56.204Z,8.80
2019-03-15T16:55:26.103Z,8.80
2019-03-15T16:57:57.791Z,8.80
2019-03-15T17:00:27.925Z,8.80
2019-03-15T17:02:57.909Z,8.80
2019-03-15T17:05:28.117Z,8.80
2019-03-15T17:07:58.029Z,8.90
2019-03-15T17:10:27.948Z,8.80
2019-03-15T17:12:57.911Z,8.90
2019-03-15T17:15:27.816Z,8.80
2019-03-15T17:17:57.846Z,8.80
2019-03-15T17:20:27.795Z,8.80
2019-03-15T17:22:57.759Z,8.80
2019-03-15T17:25:27.689Z,8.80
2019-03-15T17:27:57.678Z,8.80
2019-03-15T17:30:28.129Z,8.70
2019-03-15T17:32:58.494Z,8.80
2019-03-15T17:35:28.428Z,8.80
2019-03-15T17:37:58.397Z,8.80
2019-03-15T17:40:28.645Z,8.80
2019-03-15T17:42:58.625Z,8.70
2019-03-15T17:45:28.603Z,8.70
2019-03-15T17:47:58.591Z,8.50
2019-03-15T17:50:28.528Z,8.80
2019-03-15T17:52:58.457Z,8.80
2019-03-15T17:55:28.414Z,8.80
2019-03-15T17:57:59.085Z,8.80
2019-03-15T18:00:36.200Z,8.80
2019-03-15T18:03:19.813Z,8.90
2019-03-15T18:05:38.678Z,8.80
2019-03-15T18:08:08.688Z,8.90
2019-03-15T18:10:38.970Z,8.80
2019-03-15T18:13:09.140Z,8.90
2019-03-15T18:15:39.042Z,8.90
2019-03-15T18:18:08.988Z,8.90
2019-03-15T18:20:38.925Z,8.90
2019-03-15T18:23:08.892Z,8.90
2019-03-15T18:25:38.822Z,8.90
2019-03-15T18:28:08.795Z,8.90
2019-03-15T18:30:38.715Z,8.80
2019-03-15T18:33:08.700Z,8.80
2019-03-15T18:35:40.141Z,8.80
2019-03-15T18:38:14.412Z,8.90
2019-03-15T18:40:44.452Z,8.70
2019-03-15T18:43:14.446Z,8.80
2019-03-15T18:45:44.345Z,8.90
2019-03-15T18:48:14.672Z,8.90
2019-03-15T18:50:44.614Z,8.90
2019-03-15T18:53:14.873Z,8.90
2019-03-15T18:55:45.334Z,8.90
2019-03-15T18:58:15.343Z,9.00
2019-03-15T19:00:45.276Z,9.00
2019-03-15T19:03:15.301Z,9.00
2019-03-15T19:05:45.137Z,9.00
2019-03-15T19:08:15.076Z,9.00
2019-03-15T19:10:44.906Z,9.00
2019-03-15T19:13:15.417Z,9.00
2019-03-15T19:15:45.350Z,9.10
2019-03-15T19:18:16.483Z,9.20
2019-03-15T19:20:46.553Z,9.20
2019-03-15T19:23:16.642Z,9.20
2019-03-15T19:25:46.862Z,9.20
2019-03-15T19:28:16.808Z,9.20
2019-03-15T19:30:47.134Z,9.30
2019-03-15T19:33:17.121Z,9.30
2019-03-15T19:35:47.065Z,9.40
2019-03-15T19:38:17.057Z,9.40
2019-03-15T19:40:46.981Z,9.50
2019-03-15T19:43:16.961Z,9.60
2019-03-15T19:45:46.868Z,9.50
2019-03-15T19:48:16.843Z,9.50
2019-03-15T19:50:46.784Z,9.50
2019-03-15T19:53:16.989Z,9.50
2019-03-15T19:55:46.986Z,9.60
2019-03-15T19:58:16.936Z,9.50
2019-03-15T20:00:46.871Z,9.60
2019-03-15T20:03:17.183Z,9.60
2019-03-15T20:05:47.139Z,9.60
2019-03-15T20:08:17.090Z,9.60
2019-03-15T20:10:46.994Z,9.60
2019-03-15T20:13:19.823Z,9.70
2019-03-15T20:15:50.995Z,9.70
2019-03-15T20:18:21.340Z,9.70
2019-03-15T20:20:51.318Z,9.70
2019-03-15T20:23:21.271Z,9.70
2019-03-15T20:25:51.207Z,9.80
2019-03-15T20:28:21.146Z,9.80
2019-03-15T20:30:52.361Z,9.80
2019-03-15T20:33:22.448Z,9.90
2019-03-15T20:35:52.368Z,9.90
2019-03-15T20:38:22.634Z,9.90
2019-03-15T20:40:52.624Z,9.90
2019-03-15T20:43:22.493Z,10.00
2019-03-15T20:45:52.337Z,10.00
2019-03-15T20:48:22.205Z,9.90
2019-03-15T20:50:52.121Z,10.00
2019-03-15T20:53:22.374Z,9.90
2019-03-15T20:55:52.497Z,10.00
2019-03-15T20:58:22.877Z,10.10
2019-03-15T21:00:53.162Z,10.10
2019-03-15T21:03:23.106Z,10.10
2019-03-15T21:05:53.042Z,10.00
2019-03-15T21:08:22.988Z,10.00
2019-03-15T21:10:52.945Z,10.10
2019-03-15T21:13:22.816Z,10.10
2019-03-15T21:15:52.731Z,10.00
2019-03-15T21:18:22.666Z,10.10
2019-03-15T21:20:52.589Z,10.00
2019-03-15T21:23:22.556Z,9.90
2019-03-15T21:25:53.084Z,9.90
2019-03-15T21:28:23.341Z,9.90
2019-03-15T21:30:53.626Z,10.10
2019-03-15T21:33:23.657Z,10.10
2019-03-15T21:35:53.607Z,10.00
2019-03-15T21:38:23.556Z,9.90
2019-03-15T21:40:53.911Z,10.00
2019-03-15T21:43:23.838Z,9.90
2019-03-15T21:45:53.784Z,9.90
2019-03-15T21:48:23.710Z,9.90
2019-03-15T21:50:53.580Z,9.90
2019-03-15T21:53:23.496Z,9.90
2019-03-15T21:55:53.805Z,9.70
2019-03-15T21:58:24.144Z,9.80
2019-03-15T22:01:02.251Z,9.70
2019-03-15T22:03:25.633Z,9.70
2019-03-15T22:05:55.552Z,9.60
2019-03-15T22:08:25.457Z,9.70
2019-03-15T22:13:24.470Z,9.60
2019-03-15T22:15:54.409Z,9.70
2019-03-15T22:18:24.269Z,9.60
2019-03-15T22:20:54.253Z,9.60
2019-03-15T22:23:24.220Z,9.60
2019-03-15T22:25:54.157Z,9.60
2019-03-15T22:30:53.342Z,9.50
2019-03-15T22:33:23.321Z,9.50
2019-03-15T22:35:53.301Z,9.50
2019-03-15T22:38:26.553Z,9.50
2019-03-15T22:40:54.773Z,9.50
2019-03-15T22:45:53.932Z,9.40
2019-03-15T22:48:24.302Z,9.50
2019-03-15T22:50:54.534Z,9.50
2019-03-15T22:53:24.470Z,9.50
2019-03-15T22:58:23.891Z,9.60
2019-03-15T23:00:53.751Z,9.60
2019-03-15T23:03:23.715Z,9.60
2019-03-15T23:05:53.637Z,9.50
2019-03-15T23:13:22.102Z,9.60
2019-03-15T23:15:51.969Z,9.60
2019-03-15T23:18:21.864Z,9.60
2019-03-15T23:20:51.716Z,9.60
2019-03-15T23:23:24.100Z,9.60
2019-03-15T23:25:53.484Z,9.60
2019-03-15T23:28:23.373Z,9.60
2019-03-15T23:30:53.670Z,9.60
2019-03-15T23:33:23.791Z,9.60
2019-03-15T23:35:54.491Z,9.70
2019-03-15T23:38:24.407Z,9.70
2019-03-15T23:43:23.718Z,9.70
2019-03-15T23:45:53.574Z,9.70
2019-03-15T23:48:23.477Z,9.70
2019-03-15T23:50:53.321Z,9.70
2019-03-15T23:53:23.155Z,9.70
2019-03-15T23:55:54.929Z,9.60
2019-03-15T23:58:24.682Z,9.70
